sensor_id;sensor_type;location;lat;lon;timestamp;P1;durP1;ratioP1;P2;durP2;ratioP2
23058;SDS011;30585;51.502;7.218;2023-11-21T00:00:09;7.37;;;2.20;;
23058;SDS011;30585;51.502;7.218;2023-11-21T00:02:52;8.47;;;2.70;;
23058;SDS011;30585;51.502;7.218;2023-11-21T00:05:20;4.23;;;1.90;;
23058;SDS011;30585;51.502;7.218;2023-11-21T00:07:49;6.90;;;2.80;;
23058;SDS011;30585;51.502;7.218;2023-11-21T00:10:17;5.47;;;3.07;;
23058;SDS011;30585;51.502;7.218;2023-11-21T00:12:45;4.27;;;2.20;;
23058;SDS011;30585;51.502;7.218;2023-11-21T00:15:15;6.80;;;2.60;;
23058;SDS011;30585;51.502;7.218;2023-11-21T00:17:43;2.50;;;2.00;;
23058;SDS011;30585;51.502;7.218;2023-11-21T00:20:11;5.70;;;2.40;;
23058;SDS011;30585;51.502;7.218;2023-11-21T00:22:40;3.40;;;2.03;;
23058;SDS011;30585;51.502;7.218;2023-11-21T00:25:09;2.93;;;2.33;;
23058;SDS011;30585;51.502;7.218;2023-11-21T00:27:37;4.80;;;2.83;;
23058;SDS011;30585;51.502;7.218;2023-11-21T00:30:05;3.57;;;2.20;;
23058;SDS011;30585;51.502;7.218;2023-11-21T00:32:36;4.40;;;2.27;;
23058;SDS011;30585;51.502;7.218;2023-11-21T00:35:04;4.50;;;2.37;;
23058;SDS011;30585;51.502;7.218;2023-11-21T00:37:32;4.27;;;3.07;;
23058;SDS011;30585;51.502;7.218;2023-11-21T00:40:00;4.60;;;2.67;;
23058;SDS011;30585;51.502;7.218;2023-11-21T00:42:31;3.17;;;2.03;;
23058;SDS011;30585;51.502;7.218;2023-11-21T00:45:00;2.93;;;2.10;;
23058;SDS011;30585;51.502;7.218;2023-11-21T00:47:27;4.07;;;2.60;;
23058;SDS011;30585;51.502;7.218;2023-11-21T00:49:57;3.77;;;2.43;;
23058;SDS011;30585;51.502;7.218;2023-11-21T00:52:25;3.47;;;2.43;;
23058;SDS011;30585;51.502;7.218;2023-11-21T00:54:53;2.77;;;2.27;;
23058;SDS011;30585;51.502;7.218;2023-11-21T00:57:21;4.10;;;2.60;;
23058;SDS011;30585;51.502;7.218;2023-11-21T00:59:48;6.33;;;2.50;;
23058;SDS011;30585;51.502;7.218;2023-11-21T01:02:16;5.60;;;2.43;;
23058;SDS011;30585;51.502;7.218;2023-11-21T01:04:44;2.20;;;2.00;;
23058;SDS011;30585;51.502;7.218;2023-11-21T01:07:13;4.23;;;2.50;;
23058;SDS011;30585;51.502;7.218;2023-11-21T01:09:41;3.33;;;2.73;;
23058;SDS011;30585;51.502;7.218;2023-11-21T01:12:10;6.90;;;2.27;;
23058;SDS011;30585;51.502;7.218;2023-11-21T01:14:38;9.07;;;2.40;;
23058;SDS011;30585;51.502;7.218;2023-11-21T01:17:05;5.60;;;3.10;;
23058;SDS011;30585;51.502;7.218;2023-11-21T01:19:33;3.90;;;2.33;;
23058;SDS011;30585;51.502;7.218;2023-11-21T01:22:01;3.83;;;2.50;;
23058;SDS011;30585;51.502;7.218;2023-11-21T01:24:31;4.20;;;3.07;;
23058;SDS011;30585;51.502;7.218;2023-11-21T01:26:59;5.97;;;3.03;;
23058;SDS011;30585;51.502;7.218;2023-11-21T01:29:26;8.73;;;4.00;;
23058;SDS011;30585;51.502;7.218;2023-11-21T01:31:54;7.93;;;3.40;;
23058;SDS011;30585;51.502;7.218;2023-11-21T01:34:23;4.20;;;2.63;;
23058;SDS011;30585;51.502;7.218;2023-11-21T01:36:51;9.50;;;2.73;;
23058;SDS011;30585;51.502;7.218;2023-11-21T01:39:19;7.70;;;3.83;;
23058;SDS011;30585;51.502;7.218;2023-11-21T01:41:51;3.20;;;2.37;;
23058;SDS011;30585;51.502;7.218;2023-11-21T01:44:19;5.63;;;3.20;;
23058;SDS011;30585;51.502;7.218;2023-11-21T01:46:47;3.17;;;2.27;;
23058;SDS011;30585;51.502;7.218;2023-11-21T01:49:15;3.90;;;2.63;;
23058;SDS011;30585;51.502;7.218;2023-11-21T01:51:44;4.63;;;2.20;;
23058;SDS011;30585;51.502;7.218;2023-11-21T01:54:16;2.23;;;2.00;;
23058;SDS011;30585;51.502;7.218;2023-11-21T01:56:45;3.67;;;2.60;;
23058;SDS011;30585;51.502;7.218;2023-11-21T01:59:16;4.57;;;3.63;;
23058;SDS011;30585;51.502;7.218;2023-11-21T02:01:47;4.83;;;2.70;;
23058;SDS011;30585;51.502;7.218;2023-11-21T02:04:16;4.77;;;2.90;;
23058;SDS011;30585;51.502;7.218;2023-11-21T02:06:45;8.23;;;3.57;;
23058;SDS011;30585;51.502;7.218;2023-11-21T02:09:13;6.47;;;3.07;;
23058;SDS011;30585;51.502;7.218;2023-11-21T02:11:41;3.23;;;2.27;;
23058;SDS011;30585;51.502;7.218;2023-11-21T02:14:10;5.40;;;2.70;;
23058;SDS011;30585;51.502;7.218;2023-11-21T02:16:41;3.67;;;2.47;;
23058;SDS011;30585;51.502;7.218;2023-11-21T02:19:12;5.17;;;2.80;;
23058;SDS011;30585;51.502;7.218;2023-11-21T02:21:45;8.23;;;3.00;;
23058;SDS011;30585;51.502;7.218;2023-11-21T02:24:15;6.03;;;2.60;;
23058;SDS011;30585;51.502;7.218;2023-11-21T02:26:44;6.20;;;2.93;;
23058;SDS011;30585;51.502;7.218;2023-11-21T02:29:12;4.13;;;2.77;;
23058;SDS011;30585;51.502;7.218;2023-11-21T02:31:39;5.33;;;2.67;;
23058;SDS011;30585;51.502;7.218;2023-11-21T02:34:14;5.60;;;3.00;;
23058;SDS011;30585;51.502;7.218;2023-11-21T02:36:42;5.90;;;2.80;;
23058;SDS011;30585;51.502;7.218;2023-11-21T02:39:10;3.57;;;2.47;;
23058;SDS011;30585;51.502;7.218;2023-11-21T02:41:39;3.80;;;2.03;;
23058;SDS011;30585;51.502;7.218;2023-11-21T02:44:07;5.73;;;2.90;;
23058;SDS011;30585;51.502;7.218;2023-11-21T02:46:36;4.53;;;2.67;;
23058;SDS011;30585;51.502;7.218;2023-11-21T02:49:05;2.80;;;2.50;;
23058;SDS011;30585;51.502;7.218;2023-11-21T02:51:33;3.97;;;2.40;;
23058;SDS011;30585;51.502;7.218;2023-11-21T02:54:01;3.67;;;2.17;;
23058;SDS011;30585;51.502;7.218;2023-11-21T02:56:32;4.53;;;2.80;;
23058;SDS011;30585;51.502;7.218;2023-11-21T02:59:01;2.83;;;2.30;;
23058;SDS011;30585;51.502;7.218;2023-11-21T03:01:29;7.83;;;3.13;;
23058;SDS011;30585;51.502;7.218;2023-11-21T03:03:57;4.27;;;2.70;;
23058;SDS011;30585;51.502;7.218;2023-11-21T03:06:25;4.27;;;2.40;;
23058;SDS011;30585;51.502;7.218;2023-11-21T03:08:53;3.17;;;2.47;;
23058;SDS011;30585;51.502;7.218;2023-11-21T03:11:20;5.47;;;2.50;;
23058;SDS011;30585;51.502;7.218;2023-11-21T03:13:48;6.40;;;2.63;;
23058;SDS011;30585;51.502;7.218;2023-11-21T03:16:18;3.37;;;2.33;;
23058;SDS011;30585;51.502;7.218;2023-11-21T03:18:46;5.53;;;3.63;;
23058;SDS011;30585;51.502;7.218;2023-11-21T03:21:13;5.40;;;3.13;;
23058;SDS011;30585;51.502;7.218;2023-11-21T03:23:41;9.57;;;2.33;;
23058;SDS011;30585;51.502;7.218;2023-11-21T03:26:11;6.87;;;2.50;;
23058;SDS011;30585;51.502;7.218;2023-11-21T03:28:40;3.27;;;2.63;;
23058;SDS011;30585;51.502;7.218;2023-11-21T03:31:08;3.00;;;2.50;;
23058;SDS011;30585;51.502;7.218;2023-11-21T03:33:37;6.33;;;2.83;;
23058;SDS011;30585;51.502;7.218;2023-11-21T03:36:05;6.97;;;3.30;;
23058;SDS011;30585;51.502;7.218;2023-11-21T03:38:34;7.83;;;3.37;;
23058;SDS011;30585;51.502;7.218;2023-11-21T03:41:02;3.90;;;2.77;;
23058;SDS011;30585;51.502;7.218;2023-11-21T03:43:29;7.47;;;3.80;;
23058;SDS011;30585;51.502;7.218;2023-11-21T03:45:57;4.27;;;2.83;;
23058;SDS011;30585;51.502;7.218;2023-11-21T03:48:25;5.00;;;2.97;;
23058;SDS011;30585;51.502;7.218;2023-11-21T03:50:54;6.43;;;3.00;;
23058;SDS011;30585;51.502;7.218;2023-11-21T03:53:21;5.40;;;3.03;;
23058;SDS011;30585;51.502;7.218;2023-11-21T03:55:49;3.47;;;2.63;;
23058;SDS011;30585;51.502;7.218;2023-11-21T03:58:17;6.37;;;3.17;;
23058;SDS011;30585;51.502;7.218;2023-11-21T04:00:45;3.27;;;2.73;;
23058;SDS011;30585;51.502;7.218;2023-11-21T04:03:13;5.93;;;3.33;;
23058;SDS011;30585;51.502;7.218;2023-11-21T04:05:41;4.97;;;3.33;;
23058;SDS011;30585;51.502;7.218;2023-11-21T04:08:11;6.10;;;3.30;;
23058;SDS011;30585;51.502;7.218;2023-11-21T04:10:38;4.10;;;2.23;;
23058;SDS011;30585;51.502;7.218;2023-11-21T04:13:07;8.37;;;3.70;;
23058;SDS011;30585;51.502;7.218;2023-11-21T04:15:34;4.00;;;2.77;;
23058;SDS011;30585;51.502;7.218;2023-11-21T04:18:02;5.37;;;3.33;;
23058;SDS011;30585;51.502;7.218;2023-11-21T04:20:30;7.47;;;3.10;;
23058;SDS011;30585;51.502;7.218;2023-11-21T04:22:58;11.83;;;3.53;;
23058;SDS011;30585;51.502;7.218;2023-11-21T04:25:27;5.03;;;3.07;;
23058;SDS011;30585;51.502;7.218;2023-11-21T04:27:55;7.17;;;4.07;;
23058;SDS011;30585;51.502;7.218;2023-11-21T04:30:23;5.37;;;3.20;;
23058;SDS011;30585;51.502;7.218;2023-11-21T04:32:50;4.73;;;2.70;;
23058;SDS011;30585;51.502;7.218;2023-11-21T04:35:18;6.70;;;3.70;;
23058;SDS011;30585;51.502;7.218;2023-11-21T04:37:46;6.60;;;3.20;;
23058;SDS011;30585;51.502;7.218;2023-11-21T04:40:14;4.40;;;2.40;;
23058;SDS011;30585;51.502;7.218;2023-11-21T04:42:43;4.63;;;2.70;;
23058;SDS011;30585;51.502;7.218;2023-11-21T04:45:10;5.17;;;3.57;;
23058;SDS011;30585;51.502;7.218;2023-11-21T04:47:39;3.70;;;2.53;;
23058;SDS011;30585;51.502;7.218;2023-11-21T04:50:07;4.93;;;2.90;;
23058;SDS011;30585;51.502;7.218;2023-11-21T04:52:35;4.53;;;2.77;;
23058;SDS011;30585;51.502;7.218;2023-11-21T04:55:03;4.03;;;2.90;;
23058;SDS011;30585;51.502;7.218;2023-11-21T04:57:33;3.97;;;2.70;;
23058;SDS011;30585;51.502;7.218;2023-11-21T05:00:02;3.63;;;2.40;;
23058;SDS011;30585;51.502;7.218;2023-11-21T05:02:32;4.27;;;2.70;;
23058;SDS011;30585;51.502;7.218;2023-11-21T05:05:02;10.80;;;3.17;;
23058;SDS011;30585;51.502;7.218;2023-11-21T05:07:32;4.43;;;2.93;;
23058;SDS011;30585;51.502;7.218;2023-11-21T05:10:02;4.47;;;3.10;;
23058;SDS011;30585;51.502;7.218;2023-11-21T05:12:34;4.00;;;2.43;;
23058;SDS011;30585;51.502;7.218;2023-11-21T05:15:05;5.70;;;2.60;;
23058;SDS011;30585;51.502;7.218;2023-11-21T05:17:36;4.03;;;2.27;;
23058;SDS011;30585;51.502;7.218;2023-11-21T05:20:06;4.53;;;3.00;;
23058;SDS011;30585;51.502;7.218;2023-11-21T05:22:36;6.07;;;2.63;;
23058;SDS011;30585;51.502;7.218;2023-11-21T05:25:04;7.10;;;2.37;;
23058;SDS011;30585;51.502;7.218;2023-11-21T05:27:34;5.90;;;2.87;;
23058;SDS011;30585;51.502;7.218;2023-11-21T05:30:02;4.53;;;2.57;;
23058;SDS011;30585;51.502;7.218;2023-11-21T05:32:33;3.70;;;2.47;;
23058;SDS011;30585;51.502;7.218;2023-11-21T05:35:01;6.20;;;2.87;;
23058;SDS011;30585;51.502;7.218;2023-11-21T05:37:29;5.93;;;2.87;;
23058;SDS011;30585;51.502;7.218;2023-11-21T05:39:57;3.83;;;2.43;;
23058;SDS011;30585;51.502;7.218;2023-11-21T05:42:26;7.13;;;3.20;;
23058;SDS011;30585;51.502;7.218;2023-11-21T05:44:53;4.00;;;1.97;;
23058;SDS011;30585;51.502;7.218;2023-11-21T05:47:22;4.13;;;2.90;;
23058;SDS011;30585;51.502;7.218;2023-11-21T05:49:50;7.70;;;2.80;;
23058;SDS011;30585;51.502;7.218;2023-11-21T05:52:18;4.40;;;2.67;;
23058;SDS011;30585;51.502;7.218;2023-11-21T05:54:47;5.80;;;3.13;;
23058;SDS011;30585;51.502;7.218;2023-11-21T05:57:15;5.97;;;2.73;;
23058;SDS011;30585;51.502;7.218;2023-11-21T05:59:42;6.30;;;4.00;;
23058;SDS011;30585;51.502;7.218;2023-11-21T06:02:11;6.23;;;3.43;;
23058;SDS011;30585;51.502;7.218;2023-11-21T06:04:40;4.90;;;2.77;;
23058;SDS011;30585;51.502;7.218;2023-11-21T06:07:08;4.73;;;3.37;;
23058;SDS011;30585;51.502;7.218;2023-11-21T06:09:36;4.63;;;2.97;;
23058;SDS011;30585;51.502;7.218;2023-11-21T06:12:04;2.97;;;2.03;;
23058;SDS011;30585;51.502;7.218;2023-11-21T06:14:33;5.70;;;2.80;;
23058;SDS011;30585;51.502;7.218;2023-11-21T06:17:01;6.73;;;2.97;;
23058;SDS011;30585;51.502;7.218;2023-11-21T06:19:30;4.07;;;3.03;;
23058;SDS011;30585;51.502;7.218;2023-11-21T06:21:59;4.70;;;2.97;;
23058;SDS011;30585;51.502;7.218;2023-11-21T06:24:27;2.73;;;2.00;;
23058;SDS011;30585;51.502;7.218;2023-11-21T06:26:55;4.90;;;2.63;;
23058;SDS011;30585;51.502;7.218;2023-11-21T06:29:23;5.53;;;3.07;;
23058;SDS011;30585;51.502;7.218;2023-11-21T06:31:50;3.30;;;2.47;;
23058;SDS011;30585;51.502;7.218;2023-11-21T06:34:19;4.70;;;2.73;;
23058;SDS011;30585;51.502;7.218;2023-11-21T06:36:47;5.77;;;3.30;;
23058;SDS011;30585;51.502;7.218;2023-11-21T06:39:16;6.60;;;3.47;;
23058;SDS011;30585;51.502;7.218;2023-11-21T06:41:44;4.57;;;2.93;;
23058;SDS011;30585;51.502;7.218;2023-11-21T06:44:12;6.40;;;3.93;;
23058;SDS011;30585;51.502;7.218;2023-11-21T06:46:40;5.70;;;3.97;;
23058;SDS011;30585;51.502;7.218;2023-11-21T06:49:09;6.23;;;3.30;;
23058;SDS011;30585;51.502;7.218;2023-11-21T06:51:37;9.17;;;3.80;;
23058;SDS011;30585;51.502;7.218;2023-11-21T06:54:05;5.33;;;3.73;;
23058;SDS011;30585;51.502;7.218;2023-11-21T06:56:34;8.20;;;4.10;;
23058;SDS011;30585;51.502;7.218;2023-11-21T06:59:02;5.10;;;3.10;;
23058;SDS011;30585;51.502;7.218;2023-11-21T07:01:31;12.07;;;3.17;;
23058;SDS011;30585;51.502;7.218;2023-11-21T07:04:05;5.37;;;2.83;;
23058;SDS011;30585;51.502;7.218;2023-11-21T07:06:33;5.10;;;3.47;;
23058;SDS011;30585;51.502;7.218;2023-11-21T07:09:01;6.90;;;3.80;;
23058;SDS011;30585;51.502;7.218;2023-11-21T07:11:29;7.27;;;3.60;;
23058;SDS011;30585;51.502;7.218;2023-11-21T07:13:58;7.13;;;3.73;;
23058;SDS011;30585;51.502;7.218;2023-11-21T07:16:28;5.27;;;3.40;;
23058;SDS011;30585;51.502;7.218;2023-11-21T07:18:56;6.07;;;3.33;;
23058;SDS011;30585;51.502;7.218;2023-11-21T07:21:25;6.20;;;3.43;;
23058;SDS011;30585;51.502;7.218;2023-11-21T07:23:52;11.60;;;4.97;;
23058;SDS011;30585;51.502;7.218;2023-11-21T07:26:20;8.33;;;3.53;;
23058;SDS011;30585;51.502;7.218;2023-11-21T07:28:48;12.70;;;4.00;;
23058;SDS011;30585;51.502;7.218;2023-11-21T07:31:17;7.10;;;4.43;;
23058;SDS011;30585;51.502;7.218;2023-11-21T07:33:48;12.40;;;4.93;;
23058;SDS011;30585;51.502;7.218;2023-11-21T07:36:17;10.40;;;3.90;;
23058;SDS011;30585;51.502;7.218;2023-11-21T07:38:45;9.27;;;4.67;;
23058;SDS011;30585;51.502;7.218;2023-11-21T07:41:13;9.93;;;4.47;;
23058;SDS011;30585;51.502;7.218;2023-11-21T07:43:56;12.80;;;5.90;;
23058;SDS011;30585;51.502;7.218;2023-11-21T07:46:26;9.73;;;4.23;;
23058;SDS011;30585;51.502;7.218;2023-11-21T07:48:54;4.93;;;3.40;;
23058;SDS011;30585;51.502;7.218;2023-11-21T07:51:22;8.47;;;4.07;;
23058;SDS011;30585;51.502;7.218;2023-11-21T07:53:50;10.60;;;4.53;;
23058;SDS011;30585;51.502;7.218;2023-11-21T07:56:18;8.73;;;4.70;;
23058;SDS011;30585;51.502;7.218;2023-11-21T07:58:46;8.10;;;4.70;;
23058;SDS011;30585;51.502;7.218;2023-11-21T08:01:15;7.83;;;4.10;;
23058;SDS011;30585;51.502;7.218;2023-11-21T08:03:44;7.67;;;5.00;;
23058;SDS011;30585;51.502;7.218;2023-11-21T08:06:13;18.00;;;5.73;;
23058;SDS011;30585;51.502;7.218;2023-11-21T08:08:42;9.50;;;5.17;;
23058;SDS011;30585;51.502;7.218;2023-11-21T08:11:10;8.93;;;4.40;;
23058;SDS011;30585;51.502;7.218;2023-11-21T08:13:38;11.33;;;4.27;;
23058;SDS011;30585;51.502;7.218;2023-11-21T08:16:06;13.03;;;6.00;;
23058;SDS011;30585;51.502;7.218;2023-11-21T08:18:35;11.87;;;6.00;;
23058;SDS011;30585;51.502;7.218;2023-11-21T08:21:04;12.00;;;5.93;;
23058;SDS011;30585;51.502;7.218;2023-11-21T08:23:32;8.77;;;5.10;;
23058;SDS011;30585;51.502;7.218;2023-11-21T08:26:00;12.83;;;6.27;;
23058;SDS011;30585;51.502;7.218;2023-11-21T08:28:31;9.73;;;5.60;;
23058;SDS011;30585;51.502;7.218;2023-11-21T08:31:00;18.27;;;6.57;;
23058;SDS011;30585;51.502;7.218;2023-11-21T08:33:28;13.57;;;8.23;;
23058;SDS011;30585;51.502;7.218;2023-11-21T08:35:55;17.93;;;7.77;;
23058;SDS011;30585;51.502;7.218;2023-11-21T08:38:25;23.07;;;8.23;;
23058;SDS011;30585;51.502;7.218;2023-11-21T08:40:52;27.83;;;10.57;;
23058;SDS011;30585;51.502;7.218;2023-11-21T08:43:20;24.50;;;8.80;;
23058;SDS011;30585;51.502;7.218;2023-11-21T08:45:48;21.23;;;8.00;;
23058;SDS011;30585;51.502;7.218;2023-11-21T08:48:16;23.30;;;9.67;;
23058;SDS011;30585;51.502;7.218;2023-11-21T08:50:44;25.57;;;9.90;;
23058;SDS011;30585;51.502;7.218;2023-11-21T08:53:11;18.70;;;8.30;;
23058;SDS011;30585;51.502;7.218;2023-11-21T08:55:40;17.80;;;8.93;;
23058;SDS011;30585;51.502;7.218;2023-11-21T08:58:09;19.83;;;8.77;;
23058;SDS011;30585;51.502;7.218;2023-11-21T09:00:39;19.73;;;8.57;;
23058;SDS011;30585;51.502;7.218;2023-11-21T09:03:07;27.67;;;10.80;;
23058;SDS011;30585;51.502;7.218;2023-11-21T09:05:37;20.97;;;9.97;;
23058;SDS011;30585;51.502;7.218;2023-11-21T09:08:06;27.60;;;11.10;;
23058;SDS011;30585;51.502;7.218;2023-11-21T09:10:34;23.40;;;10.43;;
23058;SDS011;30585;51.502;7.218;2023-11-21T09:13:04;27.30;;;10.60;;
23058;SDS011;30585;51.502;7.218;2023-11-21T09:15:35;25.43;;;11.57;;
23058;SDS011;30585;51.502;7.218;2023-11-21T09:18:03;26.93;;;11.93;;
23058;SDS011;30585;51.502;7.218;2023-11-21T09:20:31;28.40;;;10.63;;
23058;SDS011;30585;51.502;7.218;2023-11-21T09:22:59;24.67;;;11.67;;
23058;SDS011;30585;51.502;7.218;2023-11-21T09:25:27;32.77;;;12.80;;
23058;SDS011;30585;51.502;7.218;2023-11-21T09:27:56;39.40;;;12.57;;
23058;SDS011;30585;51.502;7.218;2023-11-21T09:30:25;28.73;;;10.97;;
23058;SDS011;30585;51.502;7.218;2023-11-21T09:32:53;30.33;;;12.77;;
23058;SDS011;30585;51.502;7.218;2023-11-21T09:35:21;29.20;;;12.67;;
23058;SDS011;30585;51.502;7.218;2023-11-21T09:37:49;28.03;;;11.73;;
23058;SDS011;30585;51.502;7.218;2023-11-21T09:40:20;31.67;;;11.07;;
23058;SDS011;30585;51.502;7.218;2023-11-21T09:42:51;34.67;;;12.73;;
23058;SDS011;30585;51.502;7.218;2023-11-21T09:45:26;29.33;;;12.27;;
23058;SDS011;30585;51.502;7.218;2023-11-21T09:47:55;26.90;;;11.70;;
23058;SDS011;30585;51.502;7.218;2023-11-21T09:50:24;26.53;;;11.77;;
23058;SDS011;30585;51.502;7.218;2023-11-21T09:52:57;38.27;;;14.23;;
23058;SDS011;30585;51.502;7.218;2023-11-21T09:55:31;32.40;;;13.27;;
23058;SDS011;30585;51.502;7.218;2023-11-21T09:58:03;35.00;;;14.87;;
23058;SDS011;30585;51.502;7.218;2023-11-21T10:00:35;39.03;;;13.03;;
23058;SDS011;30585;51.502;7.218;2023-11-21T10:03:03;35.43;;;13.47;;
23058;SDS011;30585;51.502;7.218;2023-11-21T10:05:31;33.83;;;13.77;;
23058;SDS011;30585;51.502;7.218;2023-11-21T10:08:00;47.53;;;15.13;;
23058;SDS011;30585;51.502;7.218;2023-11-21T10:10:29;34.50;;;14.13;;
23058;SDS011;30585;51.502;7.218;2023-11-21T10:13:01;25.33;;;12.43;;
23058;SDS011;30585;51.502;7.218;2023-11-21T10:15:33;40.47;;;13.70;;
23058;SDS011;30585;51.502;7.218;2023-11-21T10:18:03;31.50;;;11.77;;
23058;SDS011;30585;51.502;7.218;2023-11-21T10:20:32;33.90;;;12.17;;
23058;SDS011;30585;51.502;7.218;2023-11-21T10:23:00;43.30;;;14.40;;
23058;SDS011;30585;51.502;7.218;2023-11-21T10:25:30;43.20;;;14.60;;
23058;SDS011;30585;51.502;7.218;2023-11-21T10:27:58;35.17;;;12.47;;
23058;SDS011;30585;51.502;7.218;2023-11-21T10:30:28;42.53;;;12.13;;
23058;SDS011;30585;51.502;7.218;2023-11-21T10:33:04;40.30;;;14.53;;
23058;SDS011;30585;51.502;7.218;2023-11-21T10:35:39;35.27;;;14.80;;
23058;SDS011;30585;51.502;7.218;2023-11-21T10:38:13;35.03;;;14.07;;
23058;SDS011;30585;51.502;7.218;2023-11-21T10:40:41;38.47;;;12.47;;
23058;SDS011;30585;51.502;7.218;2023-11-21T10:43:13;35.27;;;13.97;;
23058;SDS011;30585;51.502;7.218;2023-11-21T10:45:42;23.87;;;11.17;;
23058;SDS011;30585;51.502;7.218;2023-11-21T10:48:13;33.33;;;12.70;;
23058;SDS011;30585;51.502;7.218;2023-11-21T10:50:43;29.33;;;12.37;;
23058;SDS011;30585;51.502;7.218;2023-11-21T10:53:13;31.93;;;13.10;;
23058;SDS011;30585;51.502;7.218;2023-11-21T10:55:41;25.93;;;11.57;;
23058;SDS011;30585;51.502;7.218;2023-11-21T10:58:11;29.67;;;13.33;;
23058;SDS011;30585;51.502;7.218;2023-11-21T11:00:41;32.57;;;13.90;;
23058;SDS011;30585;51.502;7.218;2023-11-21T11:03:13;27.87;;;13.97;;
23058;SDS011;30585;51.502;7.218;2023-11-21T11:05:43;25.67;;;12.17;;
23058;SDS011;30585;51.502;7.218;2023-11-21T11:08:19;25.87;;;11.83;;
23058;SDS011;30585;51.502;7.218;2023-11-21T11:10:54;23.10;;;11.23;;
23058;SDS011;30585;51.502;7.218;2023-11-21T11:13:22;19.83;;;9.83;;
23058;SDS011;30585;51.502;7.218;2023-11-21T11:15:51;25.93;;;11.37;;
23058;SDS011;30585;51.502;7.218;2023-11-21T11:18:28;27.93;;;11.90;;
23058;SDS011;30585;51.502;7.218;2023-11-21T11:20:58;27.90;;;10.63;;
23058;SDS011;30585;51.502;7.218;2023-11-21T11:23:39;23.20;;;10.77;;
23058;SDS011;30585;51.502;7.218;2023-11-21T11:26:23;30.97;;;10.50;;
23058;SDS011;30585;51.502;7.218;2023-11-21T11:29:01;21.20;;;11.07;;
23058;SDS011;30585;51.502;7.218;2023-11-21T11:31:37;31.83;;;10.70;;
23058;SDS011;30585;51.502;7.218;2023-11-21T11:34:17;26.27;;;9.53;;
23058;SDS011;30585;51.502;7.218;2023-11-21T11:36:54;27.60;;;10.40;;
23058;SDS011;30585;51.502;7.218;2023-11-21T11:39:28;26.00;;;12.37;;
23058;SDS011;30585;51.502;7.218;2023-11-21T11:41:57;27.33;;;11.07;;
23058;SDS011;30585;51.502;7.218;2023-11-21T11:47:20;22.27;;;11.87;;
23058;SDS011;30585;51.502;7.218;2023-11-21T11:49:59;27.57;;;10.77;;
23058;SDS011;30585;51.502;7.218;2023-11-21T11:52:37;31.47;;;12.30;;
23058;SDS011;30585;51.502;7.218;2023-11-21T11:55:07;22.40;;;10.67;;
23058;SDS011;30585;51.502;7.218;2023-11-21T11:57:41;23.80;;;10.73;;
23058;SDS011;30585;51.502;7.218;2023-11-21T12:00:10;16.17;;;8.20;;
23058;SDS011;30585;51.502;7.218;2023-11-21T12:02:44;12.97;;;7.50;;
23058;SDS011;30585;51.502;7.218;2023-11-21T12:05:15;10.90;;;6.23;;
23058;SDS011;30585;51.502;7.218;2023-11-21T12:07:46;18.27;;;6.73;;
23058;SDS011;30585;51.502;7.218;2023-11-21T12:10:15;10.73;;;5.90;;
23058;SDS011;30585;51.502;7.218;2023-11-21T12:12:48;15.23;;;8.50;;
23058;SDS011;30585;51.502;7.218;2023-11-21T12:15:18;13.23;;;7.53;;
23058;SDS011;30585;51.502;7.218;2023-11-21T12:17:48;10.40;;;6.87;;
23058;SDS011;30585;51.502;7.218;2023-11-21T12:20:19;11.20;;;6.07;;
23058;SDS011;30585;51.502;7.218;2023-11-21T12:22:49;11.07;;;5.80;;
23058;SDS011;30585;51.502;7.218;2023-11-21T12:25:17;12.80;;;6.43;;
23058;SDS011;30585;51.502;7.218;2023-11-21T12:27:46;11.50;;;6.10;;
23058;SDS011;30585;51.502;7.218;2023-11-21T12:30:16;14.20;;;6.37;;
23058;SDS011;30585;51.502;7.218;2023-11-21T12:32:47;9.40;;;6.03;;
23058;SDS011;30585;51.502;7.218;2023-11-21T12:35:16;7.10;;;4.30;;
23058;SDS011;30585;51.502;7.218;2023-11-21T12:37:47;7.07;;;3.97;;
23058;SDS011;30585;51.502;7.218;2023-11-21T12:40:16;8.10;;;4.70;;
23058;SDS011;30585;51.502;7.218;2023-11-21T12:42:44;8.20;;;3.93;;
23058;SDS011;30585;51.502;7.218;2023-11-21T12:45:21;5.80;;;3.70;;
23058;SDS011;30585;51.502;7.218;2023-11-21T12:47:53;6.77;;;4.23;;
23058;SDS011;30585;51.502;7.218;2023-11-21T12:50:25;7.70;;;4.20;;
23058;SDS011;30585;51.502;7.218;2023-11-21T12:52:57;6.10;;;4.00;;
23058;SDS011;30585;51.502;7.218;2023-11-21T12:55:29;6.07;;;3.43;;
23058;SDS011;30585;51.502;7.218;2023-11-21T12:58:00;6.47;;;3.93;;
23058;SDS011;30585;51.502;7.218;2023-11-21T13:00:35;5.63;;;3.43;;
23058;SDS011;30585;51.502;7.218;2023-11-21T13:03:05;8.73;;;4.33;;
23058;SDS011;30585;51.502;7.218;2023-11-21T13:05:35;8.10;;;4.10;;
23058;SDS011;30585;51.502;7.218;2023-11-21T13:08:06;8.93;;;3.87;;
23058;SDS011;30585;51.502;7.218;2023-11-21T13:10:36;7.67;;;3.97;;
23058;SDS011;30585;51.502;7.218;2023-11-21T13:13:06;6.47;;;3.73;;
23058;SDS011;30585;51.502;7.218;2023-11-21T13:15:38;6.70;;;4.07;;
23058;SDS011;30585;51.502;7.218;2023-11-21T13:18:07;7.77;;;4.57;;
23058;SDS011;30585;51.502;7.218;2023-11-21T13:20:39;7.73;;;4.83;;
23058;SDS011;30585;51.502;7.218;2023-11-21T13:23:07;10.10;;;4.87;;
23058;SDS011;30585;51.502;7.218;2023-11-21T13:25:38;8.10;;;4.80;;
23058;SDS011;30585;51.502;7.218;2023-11-21T13:28:08;12.63;;;5.47;;
23058;SDS011;30585;51.502;7.218;2023-11-21T13:30:37;9.70;;;5.33;;
23058;SDS011;30585;51.502;7.218;2023-11-21T13:33:06;8.37;;;4.37;;
23058;SDS011;30585;51.502;7.218;2023-11-21T13:35:36;8.27;;;5.10;;
23058;SDS011;30585;51.502;7.218;2023-11-21T13:38:10;13.13;;;6.10;;
23058;SDS011;30585;51.502;7.218;2023-11-21T13:40:39;10.53;;;4.47;;
23058;SDS011;30585;51.502;7.218;2023-11-21T13:43:12;8.20;;;5.07;;
23058;SDS011;30585;51.502;7.218;2023-11-21T13:45:42;8.57;;;4.50;;
23058;SDS011;30585;51.502;7.218;2023-11-21T13:48:11;10.67;;;4.70;;
23058;SDS011;30585;51.502;7.218;2023-11-21T13:50:40;6.77;;;3.93;;
23058;SDS011;30585;51.502;7.218;2023-11-21T13:53:16;10.40;;;4.60;;
23058;SDS011;30585;51.502;7.218;2023-11-21T13:55:49;8.63;;;4.17;;
23058;SDS011;30585;51.502;7.218;2023-11-21T13:58:17;11.40;;;4.70;;
23058;SDS011;30585;51.502;7.218;2023-11-21T14:00:49;7.83;;;4.57;;
23058;SDS011;30585;51.502;7.218;2023-11-21T14:03:23;7.17;;;4.40;;
23058;SDS011;30585;51.502;7.218;2023-11-21T14:05:59;7.67;;;3.70;;
23058;SDS011;30585;51.502;7.218;2023-11-21T14:08:35;9.37;;;3.93;;
23058;SDS011;30585;51.502;7.218;2023-11-21T14:11:03;9.60;;;4.47;;
23058;SDS011;30585;51.502;7.218;2023-11-21T14:13:33;6.67;;;3.70;;
23058;SDS011;30585;51.502;7.218;2023-11-21T14:16:01;8.60;;;4.37;;
23058;SDS011;30585;51.502;7.218;2023-11-21T14:18:29;9.43;;;3.50;;
23058;SDS011;30585;51.502;7.218;2023-11-21T14:21:02;6.93;;;4.00;;
23058;SDS011;30585;51.502;7.218;2023-11-21T14:23:31;5.80;;;3.30;;
23058;SDS011;30585;51.502;7.218;2023-11-21T14:26:03;6.53;;;3.23;;
23058;SDS011;30585;51.502;7.218;2023-11-21T14:28:32;6.00;;;3.83;;
23058;SDS011;30585;51.502;7.218;2023-11-21T14:31:01;9.77;;;3.83;;
23058;SDS011;30585;51.502;7.218;2023-11-21T14:33:29;6.93;;;3.07;;
23058;SDS011;30585;51.502;7.218;2023-11-21T14:35:57;6.33;;;2.90;;
23058;SDS011;30585;51.502;7.218;2023-11-21T14:38:25;5.63;;;3.00;;
23058;SDS011;30585;51.502;7.218;2023-11-21T14:40:53;3.33;;;2.33;;
23058;SDS011;30585;51.502;7.218;2023-11-21T14:43:24;5.83;;;3.10;;
23058;SDS011;30585;51.502;7.218;2023-11-21T14:45:55;5.80;;;3.23;;
23058;SDS011;30585;51.502;7.218;2023-11-21T14:48:25;4.37;;;2.63;;
23058;SDS011;30585;51.502;7.218;2023-11-21T14:51:08;7.67;;;2.77;;
23058;SDS011;30585;51.502;7.218;2023-11-21T14:53:53;5.23;;;2.90;;
23058;SDS011;30585;51.502;7.218;2023-11-21T14:56:23;6.33;;;2.33;;